Warren, North Dakota
Current Conditions -  °F | °C
As of 6:53 AM on Saturday 25 Oct 2014 (Local Time) from KFAR Reporting Station
Clear Clear  
Wind Chill: 36°   Ceiling: Unl
Heat Index: 42°   Visibility: 10mi
Dew Point: 32°   Wind: 10mph
Humidity: 67%   Direction: 290°WNW
Pressure: 30.04"   Gusts: NA
Location:  46.672°N, 97.1156°W
Report Text: KFAR 251153Z AUTO 29009KT 10SM CLR 06/00 A3004 RMK AO2 SLP177 T00560000 10078 20050 51012 TSNO $
Loading
Personal Weather Stations






























Interactive Weather Map
Tropical Storm Tracking
New forecast layout! Learn more

10-Day Weather Forecast

Advertisements
Track Severe Weather on mobile